Time;durP1;ratioP1;P1;durP2;ratioP2;P2;SDS_P1;SDS_P2;PMS_P1;PMS_P2;Temp;Humidity;BMP_temperature;BMP_pressure;BME280_temperature;BME280_humidity;BME280_pressure;Samples;Min_cycle;Max_cycle;Signal;HPM_P1;HPM_P2
2023/03/23 00:01:09;;;;;;;1.10;1.00;;;13.50;91.50;;;;;;5041909;28;20970;-85
2023/03/23 00:03:35;;;;;;;8.40;2.80;;;13.50;91.40;;;;;;5050840;28;20541;-86
2023/03/23 00:06:06;;;;;;;1.60;1.50;;;13.50;91.50;;;;;;5056982;28;20473;-84
2023/03/23 00:08:37;;;;;;;5.60;3.00;;;13.40;91.60;;;;;;5056661;28;20214;-86
2023/03/23 00:11:05;;;;;;;1.77;1.67;;;13.40;91.80;;;;;;5051654;28;20431;-87
2023/03/23 00:13:32;;;;;;;1.60;1.50;;;13.40;91.60;;;;;;5043836;28;20436;-86
2023/03/23 00:15:58;;;;;;;1.03;0.93;;;13.40;91.60;;;;;;5048874;28;20487;-84
2023/03/23 00:18:24;;;;;;;1.00;0.90;;;13.40;91.60;;;;;;5050154;28;20434;-84
2023/03/23 00:20:51;;;;;;;1.57;1.40;;;13.40;91.60;;;;;;5050982;28;20744;-83
2023/03/23 00:23:18;;;;;;;2.50;1.20;;;13.40;91.80;;;;;;5056845;28;20430;-86
2023/03/23 00:25:49;;;;;;;1.10;1.00;;;13.40;91.60;;;;;;5047565;28;20510;-87
2023/03/23 00:28:16;;;;;;;1.20;1.10;;;13.40;91.70;;;;;;5038972;28;20438;-84
2023/03/23 00:30:44;;;;;;;1.03;1.00;;;13.40;91.60;;;;;;5045974;28;20467;-84
2023/03/23 00:33:12;;;;;;;1.10;1.00;;;13.40;91.60;;;;;;5041600;28;20441;-84
2023/03/23 00:35:38;;;;;;;1.10;1.10;;;13.40;91.50;;;;;;5047122;28;20871;-83
2023/03/23 00:38:04;;;;;;;0.90;0.90;;;13.40;91.40;;;;;;5056477;28;20500;-87
2023/03/23 00:40:30;;;;;;;1.00;0.90;;;13.40;91.20;;;;;;5056594;28;20750;-84
2023/03/23 00:42:56;;;;;;;2.07;1.93;;;13.40;90.80;;;;;;5052652;28;20175;-85
2023/03/23 00:45:23;;;;;;;1.73;1.10;;;13.50;90.90;;;;;;5050043;28;20216;-84
2023/03/23 00:47:50;;;;;;;1.33;1.30;;;13.50;90.80;;;;;;5054285;28;20203;-84
2023/03/23 00:50:17;;;;;;;1.43;0.90;;;13.40;90.80;;;;;;5053368;28;20432;-86
2023/03/23 00:52:42;;;;;;;1.23;1.13;;;13.40;90.80;;;;;;5047224;28;20922;-83
2023/03/23 00:55:08;;;;;;;1.27;1.17;;;13.40;90.50;;;;;;5049647;28;20426;-85
2023/03/23 00:57:34;;;;;;;1.87;1.23;;;13.40;90.40;;;;;;5043322;28;20183;-85
2023/03/23 00:59:59;;;;;;;1.00;0.90;;;13.40;90.50;;;;;;5047827;28;20270;-84
2023/03/23 01:02:25;;;;;;;1.37;1.27;;;13.40;90.60;;;;;;5040297;28;20180;-85
2023/03/23 01:04:54;;;;;;;1.10;1.00;;;13.40;90.60;;;;;;5048145;28;20226;-86
2023/03/23 01:07:22;;;;;;;1.40;1.30;;;13.40;90.60;;;;;;5041275;28;20424;-81
2023/03/23 01:09:48;;;;;;;1.53;1.23;;;13.40;90.80;;;;;;5051619;28;20510;-85
2023/03/23 01:12:14;;;;;;;3.30;2.10;;;13.30;90.90;;;;;;5050069;28;20442;-86
2023/03/23 01:14:41;;;;;;;1.50;1.40;;;13.30;91.00;;;;;;5052844;28;20430;-82
2023/03/23 01:17:06;;;;;;;1.10;1.00;;;13.20;91.20;;;;;;5041966;28;20419;-83
2023/03/23 01:19:32;;;;;;;1.23;1.10;;;13.20;91.20;;;;;;5053408;28;20827;-84
2023/03/23 01:21:57;;;;;;;1.20;1.10;;;13.10;91.60;;;;;;5049255;28;20204;-84
2023/03/23 01:24:23;;;;;;;1.00;0.90;;;13.10;91.70;;;;;;5046650;28;20674;-84
2023/03/23 01:26:48;;;;;;;1.70;1.00;;;13.00;91.70;;;;;;5052388;28;20349;-84
2023/03/23 01:29:14;;;;;;;0.97;0.87;;;13.00;91.80;;;;;;5052046;28;20191;-86
2023/03/23 01:31:40;;;;;;;1.20;1.20;;;13.00;92.00;;;;;;5052752;28;20194;-85
2023/03/23 01:34:05;;;;;;;1.00;0.90;;;12.90;92.00;;;;;;5056124;28;20193;-82
2023/03/23 01:36:32;;;;;;;1.10;1.00;;;12.90;92.10;;;;;;5046077;28;20176;-83
2023/03/23 01:39:00;;;;;;;1.13;1.03;;;12.90;92.10;;;;;;5052267;28;20222;-85
2023/03/23 01:41:26;;;;;;;0.97;0.87;;;12.90;92.20;;;;;;5056158;28;20433;-85
2023/03/23 01:44:02;;;;;;;3.37;1.63;;;12.90;91.80;;;;;;5047424;28;20453;-83
2023/03/23 01:46:30;;;;;;;0.97;0.93;;;13.00;91.50;;;;;;5043516;28;20491;-85
2023/03/23 01:48:57;;;;;;;6.20;1.60;;;13.00;91.40;;;;;;5042512;28;20449;-85
2023/03/23 01:51:26;;;;;;;1.17;1.07;;;13.00;91.40;;;;;;5053778;28;20412;-85
2023/03/23 01:53:59;;;;;;;0.77;0.73;;;13.00;91.40;;;;;;5045561;28;20484;-84
2023/03/23 01:56:32;;;;;;;1.20;1.10;;;13.00;91.30;;;;;;5044134;28;20413;-85
2023/03/23 01:58:58;;;;;;;1.53;1.40;;;13.00;91.40;;;;;;5051206;28;20442;-85
2023/03/23 02:01:25;;;;;;;1.10;1.00;;;13.00;91.50;;;;;;5038154;28;20423;-82
2023/03/23 02:03:54;;;;;;;1.00;1.00;;;12.90;91.90;;;;;;5043432;28;21002;-86
2023/03/23 02:06:19;;;;;;;1.10;1.00;;;12.90;92.00;;;;;;5036578;28;20425;-85
2023/03/23 02:08:48;;;;;;;1.77;1.67;;;12.80;91.80;;;;;;5045439;28;20434;-86
2023/03/23 02:11:19;;;;;;;1.20;1.00;;;12.80;92.00;;;;;;5045351;28;20176;-86
2023/03/23 02:13:45;;;;;;;1.47;1.37;;;12.80;92.10;;;;;;5047325;28;20421;-86
2023/03/23 02:16:21;;;;;;;44.40;2.00;;;12.80;92.20;;;;;;5045473;28;20442;-85
2023/03/23 02:19:20;;;;;;;1.37;1.37;;;12.70;92.40;;;;;;5044591;28;20443;-86
2023/03/23 02:22:04;;;;;;;1.50;1.40;;;12.70;92.50;;;;;;5046629;28;20417;-86
2023/03/23 02:24:54;;;;;;;1.60;1.50;;;12.70;92.50;;;;;;5047716;28;20461;-86
2023/03/23 02:28:01;;;;;;;26.27;2.00;;;12.70;92.50;;;;;;5057973;28;20471;-85
2023/03/23 02:30:59;;;;;;;1.23;1.13;;;12.60;92.50;;;;;;5047780;28;20418;-86
2023/03/23 02:33:55;;;;;;;3.57;1.77;;;12.60;92.70;;;;;;5050858;28;20452;-86
2023/03/23 02:36:58;;;;;;;1.87;1.77;;;12.60;92.80;;;;;;5050271;28;20421;-86
2023/03/23 02:39:57;;;;;;;1.20;1.10;;;12.60;92.90;;;;;;4984093;28;20548;-86
2023/03/23 02:42:27;;;;;;;1.10;1.00;;;12.50;92.80;;;;;;5015569;28;20501;-86
2023/03/23 02:44:55;;;;;;;1.97;1.60;;;12.50;93.00;;;;;;5020357;28;20458;-85
2023/03/23 02:47:25;;;;;;;1.00;0.90;;;12.50;93.20;;;;;;5043709;28;20700;-86
2023/03/23 02:49:53;;;;;;;1.60;1.00;;;12.50;93.00;;;;;;5025399;28;20450;-86
2023/03/23 02:52:27;;;;;;;1.00;1.00;;;12.50;92.80;;;;;;5030697;28;20441;-86
2023/03/23 02:54:54;;;;;;;1.10;1.00;;;12.50;92.90;;;;;;5031395;28;20524;-86
2023/03/23 02:57:21;;;;;;;4.53;1.47;;;12.50;93.10;;;;;;5030965;28;20483;-86
2023/03/23 02:59:47;;;;;;;1.13;1.03;;;12.50;93.10;;;;;;5026045;28;20909;-86
2023/03/23 03:02:18;;;;;;;1.00;0.90;;;12.50;93.20;;;;;;5017977;28;20422;-86
2023/03/23 03:05:09;;;;;;;1.10;1.00;;;12.50;93.30;;;;;;5020197;28;20223;-86
2023/03/23 03:07:59;;;;;;;4.70;1.17;;;12.50;93.30;;;;;;5029814;28;20411;-85
2023/03/23 03:10:26;;;;;;;1.00;0.90;;;12.50;93.00;;;;;;5030812;28;20414;-86
2023/03/23 03:13:02;;;;;;;1.20;1.10;;;12.50;93.00;;;;;;5026014;28;20419;-87
2023/03/23 03:15:41;;;;;;;2.13;1.50;;;12.60;92.90;;;;;;5012017;28;20427;-86
2023/03/23 03:18:32;;;;;;;1.13;1.03;;;12.60;92.90;;;;;;5013646;28;20493;-87
2023/03/23 03:21:04;;;;;;;1.23;1.13;;;12.60;92.90;;;;;;5009005;28;20425;-85
2023/03/23 03:23:33;;;;;;;0.90;0.80;;;12.60;93.00;;;;;;5025123;28;20522;-86
2023/03/23 03:26:04;;;;;;;1.57;1.47;;;12.60;93.10;;;;;;5026180;28;20418;-85
2023/03/23 03:28:31;;;;;;;0.90;0.80;;;12.60;93.20;;;;;;5028166;28;20557;-86
2023/03/23 03:31:00;;;;;;;1.00;0.90;;;12.60;93.10;;;;;;5025912;28;20453;-86
2023/03/23 03:33:27;;;;;;;1.37;1.27;;;12.60;93.20;;;;;;5021318;28;20767;-86
2023/03/23 03:35:58;;;;;;;4.53;1.93;;;12.60;93.00;;;;;;5022046;28;20417;-86
2023/03/23 03:38:24;;;;;;;1.30;1.20;;;12.60;92.90;;;;;;5040934;28;20472;-85
2023/03/23 03:40:50;;;;;;;7.20;3.00;;;12.70;92.80;;;;;;5050131;28;20457;-86
2023/03/23 03:43:16;;;;;;;1.20;1.10;;;12.70;92.80;;;;;;5043067;28;20422;-86
2023/03/23 03:45:41;;;;;;;1.17;1.00;;;12.70;92.70;;;;;;5048974;28;20267;-85
2023/03/23 03:48:07;;;;;;;2.00;1.70;;;12.80;92.80;;;;;;5041504;28;20302;-87
2023/03/23 03:50:33;;;;;;;1.57;1.30;;;12.80;92.60;;;;;;5045545;28;20270;-86
2023/03/23 03:52:58;;;;;;;1.00;0.90;;;12.90;92.30;;;;;;5053020;28;20171;-86
2023/03/23 03:55:24;;;;;;;1.50;1.40;;;12.90;92.20;;;;;;5046575;28;20186;-85
2023/03/23 03:57:50;;;;;;;1.97;1.20;;;13.00;91.90;;;;;;5050720;28;20578;-85
2023/03/23 04:00:16;;;;;;;1.17;1.07;;;13.00;91.80;;;;;;5042665;28;20425;-87
2023/03/23 04:02:47;;;;;;;1.63;1.07;;;13.10;91.70;;;;;;5053451;28;20177;-86
2023/03/23 04:05:13;;;;;;;1.10;1.00;;;13.10;91.70;;;;;;5053045;28;20587;-86
2023/03/23 04:07:39;;;;;;;1.20;1.10;;;13.20;91.40;;;;;;5039226;28;21016;-85
2023/03/23 04:10:09;;;;;;;1.10;1.00;;;13.20;91.20;;;;;;5053706;28;20418;-85
2023/03/23 04:12:36;;;;;;;1.93;1.83;;;13.30;91.30;;;;;;5045351;28;20463;-86
2023/03/23 04:15:02;;;;;;;2.57;2.20;;;13.30;91.20;;;;;;5041951;28;20895;-85
2023/03/23 04:17:27;;;;;;;1.20;1.10;;;13.30;91.20;;;;;;5057219;28;20489;-83
2023/03/23 04:19:56;;;;;;;1.43;1.33;;;13.30;91.20;;;;;;5059782;28;20712;-84
2023/03/23 04:22:29;;;;;;;0.93;0.93;;;13.30;91.30;;;;;;5053311;28;20266;-85
2023/03/23 04:25:00;;;;;;;1.00;1.00;;;13.30;91.30;;;;;;5047782;28;20449;-86
2023/03/23 04:27:28;;;;;;;0.90;0.90;;;13.30;91.20;;;;;;5050606;28;20432;-86
2023/03/23 04:29:58;;;;;;;1.10;1.00;;;13.30;91.20;;;;;;5055175;28;20425;-86
2023/03/23 04:32:28;;;;;;;4.73;1.63;;;13.40;91.20;;;;;;5057568;28;20457;-86
2023/03/23 04:34:56;;;;;;;1.10;0.97;;;13.40;91.00;;;;;;5052963;28;20432;-85
2023/03/23 04:37:25;;;;;;;1.27;1.17;;;13.40;90.60;;;;;;5052941;28;20449;-85
2023/03/23 04:39:59;;;;;;;1.10;1.00;;;13.50;90.70;;;;;;5045697;28;20434;-85
2023/03/23 04:42:28;;;;;;;1.00;0.90;;;13.50;90.50;;;;;;5052313;28;20416;-85
2023/03/23 04:44:55;;;;;;;1.00;0.90;;;13.50;90.60;;;;;;5040418;28;20497;-86
2023/03/23 04:47:20;;;;;;;1.00;0.90;;;13.50;90.80;;;;;;5047936;28;20413;-85
2023/03/23 04:49:46;;;;;;;1.47;1.37;;;13.50;90.60;;;;;;5046463;28;20470;-85
2023/03/23 04:52:11;;;;;;;1.77;1.50;;;13.50;90.60;;;;;;5053074;28;20175;-86
2023/03/23 04:54:37;;;;;;;1.07;0.97;;;13.50;90.70;;;;;;5055445;28;20187;-84
2023/03/23 04:57:03;;;;;;;19.37;2.03;;;13.50;90.70;;;;;;5053826;28;20186;-83
2023/03/23 04:59:30;;;;;;;1.37;1.27;;;13.50;90.70;;;;;;5060616;28;20215;-83
2023/03/23 05:01:56;;;;;;;1.77;1.57;;;13.60;90.60;;;;;;5045730;28;20186;-83
2023/03/23 05:04:22;;;;;;;1.00;0.90;;;13.60;90.80;;;;;;5057991;28;20453;-84
2023/03/23 05:06:48;;;;;;;1.00;0.90;;;13.60;90.60;;;;;;5057629;28;20181;-84
2023/03/23 05:09:13;;;;;;;1.43;1.33;;;13.60;90.60;;;;;;5047112;28;20527;-83
2023/03/23 05:11:39;;;;;;;1.63;1.17;;;13.60;90.60;;;;;;5053073;28;20174;-84
2023/03/23 05:14:05;;;;;;;2.80;1.37;;;13.60;91.20;;;;;;5055139;28;20224;-84
2023/03/23 05:16:30;;;;;;;1.90;1.50;;;13.60;92.10;;;;;;5059321;28;20223;-83
2023/03/23 05:18:59;;;;;;;0.90;0.80;;;13.50;92.70;;;;;;5061084;28;20194;-85
2023/03/23 05:21:25;;;;;;;2.90;1.00;;;13.50;93.10;;;;;;5045609;28;20646;-86
2023/03/23 05:23:54;;;;;;;0.90;0.80;;;13.40;93.40;;;;;;5044262;28;20462;-85
2023/03/23 05:26:21;;;;;;;0.90;0.80;;;13.30;93.10;;;;;;5032567;28;20512;-86
2023/03/23 05:28:48;;;;;;;4.43;1.20;;;13.30;93.30;;;;;;5048953;28;20448;-86
2023/03/23 05:31:14;;;;;;;1.30;1.20;;;13.30;93.40;;;;;;5048336;28;20654;-86
2023/03/23 05:33:39;;;;;;;1.10;1.10;;;13.30;93.50;;;;;;5050558;28;20508;-86
2023/03/23 05:36:06;;;;;;;1.30;1.20;;;13.30;93.70;;;;;;5050599;28;20179;-86
2023/03/23 05:38:32;;;;;;;1.00;0.90;;;13.30;93.60;;;;;;5050781;28;20238;-86
2023/03/23 05:41:03;;;;;;;2.40;1.10;;;13.30;93.80;;;;;;5046972;28;20613;-86
2023/03/23 05:43:29;;;;;;;1.10;1.00;;;13.20;95.10;;;;;;5050596;28;20194;-86
2023/03/23 05:45:54;;;;;;;1.23;1.10;;;13.20;96.00;;;;;;5050273;28;20414;-86
2023/03/23 05:48:20;;;;;;;1.53;1.27;;;13.10;95.60;;;;;;5037053;28;20196;-86
2023/03/23 05:50:46;;;;;;;1.23;1.13;;;13.10;95.70;;;;;;5042941;28;20178;-86
2023/03/23 05:53:12;;;;;;;1.27;1.20;;;13.10;95.90;;;;;;5044781;28;20176;-85
2023/03/23 05:55:37;;;;;;;2.87;1.40;;;13.10;95.90;;;;;;5049222;28;21042;-86
2023/03/23 05:58:03;;;;;;;1.00;0.90;;;13.10;95.50;;;;;;5043199;28;20704;-86
2023/03/23 06:00:30;;;;;;;1.73;1.43;;;13.10;95.70;;;;;;5049281;28;20187;-86
2023/03/23 06:02:56;;;;;;;1.07;0.97;;;13.10;95.90;;;;;;5054039;28;20171;-85
2023/03/23 06:05:23;;;;;;;7.70;1.20;;;13.10;96.10;;;;;;5051199;28;20445;-85
2023/03/23 06:07:49;;;;;;;1.73;1.20;;;13.00;95.90;;;;;;5045682;28;20487;-86
2023/03/23 06:10:14;;;;;;;0.90;0.80;;;13.00;95.80;;;;;;5043242;28;20498;-86
2023/03/23 06:12:40;;;;;;;2.70;2.50;;;13.10;95.80;;;;;;5049476;28;20183;-86
2023/03/23 06:15:07;;;;;;;1.23;1.20;;;13.10;96.20;;;;;;5057464;28;20196;-86
2023/03/23 06:17:33;;;;;;;1.20;1.10;;;13.10;96.60;;;;;;5044718;28;20251;-86
2023/03/23 06:19:59;;;;;;;2.03;1.90;;;13.10;97.30;;;;;;5041091;28;20422;-86
2023/03/23 06:22:25;;;;;;;1.30;1.10;;;13.00;97.30;;;;;;5035701;28;20548;-86
2023/03/23 06:24:50;;;;;;;4.37;2.93;;;13.00;97.30;;;;;;5047123;28;20456;-86
2023/03/23 06:27:17;;;;;;;1.80;1.27;;;12.90;97.30;;;;;;5051658;28;20171;-86
2023/03/23 06:29:43;;;;;;;5.70;1.97;;;12.90;97.30;;;;;;5036129;28;20178;-86
2023/03/23 06:32:12;;;;;;;2.80;2.30;;;12.80;97.30;;;;;;5045411;28;20413;-86
2023/03/23 06:34:37;;;;;;;4.83;2.37;;;12.80;97.30;;;;;;5041152;28;20439;-86
2023/03/23 06:37:03;;;;;;;1.13;1.03;;;12.70;97.30;;;;;;5043264;28;20418;-86
2023/03/23 06:39:29;;;;;;;2.37;0.97;;;12.70;97.30;;;;;;5036142;28;20630;-86
2023/03/23 06:41:58;;;;;;;1.10;1.10;;;12.70;97.30;;;;;;5043855;28;20649;-86
2023/03/23 06:44:24;;;;;;;2.33;2.13;;;12.70;97.30;;;;;;5039562;28;20222;-86
2023/03/23 06:46:50;;;;;;;0.90;0.80;;;12.60;97.30;;;;;;5047977;28;20415;-85
2023/03/23 06:49:16;;;;;;;3.33;1.43;;;12.60;97.30;;;;;;5052511;28;20238;-84
2023/03/23 06:51:41;;;;;;;1.20;1.10;;;12.60;97.30;;;;;;5041334;28;20542;-85
2023/03/23 06:54:07;;;;;;;3.03;1.53;;;12.60;97.30;;;;;;5053802;28;20273;-86
2023/03/23 06:56:32;;;;;;;1.40;1.30;;;12.60;97.30;;;;;;5041573;28;20183;-86
2023/03/23 06:58:58;;;;;;;1.70;1.60;;;12.60;97.30;;;;;;5053228;28;20203;-86
2023/03/23 07:01:24;;;;;;;1.83;1.20;;;12.60;97.30;;;;;;5053831;28;20179;-86
2023/03/23 07:03:50;;;;;;;0.90;0.80;;;12.60;97.30;;;;;;5054560;28;20449;-86
2023/03/23 07:06:15;;;;;;;1.97;1.77;;;12.60;97.30;;;;;;5057067;28;20175;-86
2023/03/23 07:08:41;;;;;;;5.60;1.37;;;12.60;97.30;;;;;;5048023;28;20195;-85
2023/03/23 07:11:07;;;;;;;1.20;1.10;;;12.60;97.30;;;;;;5044967;28;20425;-85
2023/03/23 07:13:33;;;;;;;1.27;1.17;;;12.60;97.30;;;;;;5054398;28;20180;-85
2023/03/23 07:15:59;;;;;;;1.33;1.30;;;12.60;97.30;;;;;;5046470;28;20844;-86
2023/03/23 07:18:25;;;;;;;1.80;1.73;;;12.60;97.30;;;;;;5048209;28;20195;-85
2023/03/23 07:20:52;;;;;;;1.33;1.27;;;12.60;97.30;;;;;;5042039;28;20517;-86
2023/03/23 07:23:18;;;;;;;1.53;1.10;;;12.60;97.30;;;;;;5047724;28;20268;-86
2023/03/23 07:25:46;;;;;;;1.40;1.30;;;12.70;97.30;;;;;;5040927;28;20423;-86
2023/03/23 07:28:12;;;;;;;1.57;1.37;;;12.70;97.30;;;;;;5044366;28;20447;-86
2023/03/23 07:30:38;;;;;;;1.30;1.20;;;12.70;97.30;;;;;;5040782;28;20501;-86
2023/03/23 07:33:05;;;;;;;1.40;1.30;;;12.70;97.30;;;;;;5048744;28;20179;-85
2023/03/23 07:35:31;;;;;;;1.10;1.00;;;12.80;97.30;;;;;;5053161;28;20827;-87
2023/03/23 07:37:56;;;;;;;13.27;1.67;;;12.90;97.30;;;;;;5049501;28;20469;-86
2023/03/23 07:40:22;;;;;;;1.00;0.90;;;12.90;97.30;;;;;;5029057;28;20662;-86
2023/03/23 07:42:53;;;;;;;2.00;1.43;;;12.90;97.30;;;;;;5032112;28;20179;-85
2023/03/23 07:45:18;;;;;;;1.47;1.40;;;12.90;97.30;;;;;;5026306;28;20245;-86
2023/03/23 07:47:44;;;;;;;1.23;1.13;;;12.90;97.30;;;;;;5024812;28;20434;-86
2023/03/23 07:50:11;;;;;;;1.10;1.00;;;12.90;97.30;;;;;;5021683;28;20172;-87
2023/03/23 07:52:37;;;;;;;1.00;0.90;;;12.90;97.30;;;;;;5025128;28;20179;-86
2023/03/23 07:55:04;;;;;;;1.13;1.00;;;13.00;97.30;;;;;;5030273;28;20433;-86
2023/03/23 07:57:30;;;;;;;1.20;1.10;;;13.00;97.30;;;;;;5025742;28;20744;-85
2023/03/23 07:59:57;;;;;;;1.83;1.73;;;13.00;97.30;;;;;;5018576;28;20510;-85
2023/03/23 08:02:24;;;;;;;1.00;0.90;;;13.00;97.30;;;;;;5027938;28;20411;-86
2023/03/23 08:04:50;;;;;;;0.90;0.80;;;13.00;97.30;;;;;;5016189;28;20832;-85
2023/03/23 08:07:17;;;;;;;0.90;0.83;;;13.00;97.30;;;;;;5030096;28;20411;-86
2023/03/23 08:09:43;;;;;;;1.17;1.07;;;13.10;97.30;;;;;;5027326;28;20438;-85
2023/03/23 08:12:08;;;;;;;1.03;0.93;;;13.10;97.30;;;;;;5035197;28;20468;-85
2023/03/23 08:14:34;;;;;;;1.10;1.00;;;13.10;97.30;;;;;;5027717;28;20423;-86
2023/03/23 08:17:00;;;;;;;1.00;0.90;;;13.10;97.30;;;;;;5031093;28;20187;-86
2023/03/23 08:19:26;;;;;;;1.20;1.10;;;13.10;97.30;;;;;;5019552;28;20205;-86
2023/03/23 08:21:51;;;;;;;17.13;2.23;;;13.10;97.30;;;;;;5034234;28;20176;-86
2023/03/23 08:24:17;;;;;;;2.97;1.23;;;13.10;97.30;;;;;;5035625;28;20893;-85
2023/03/23 08:26:42;;;;;;;1.10;1.00;;;13.10;97.30;;;;;;5034345;28;20218;-86
2023/03/23 08:29:08;;;;;;;5.53;1.03;;;13.10;97.30;;;;;;5025817;28;20671;-86
2023/03/23 08:31:35;;;;;;;0.80;0.80;;;13.10;97.30;;;;;;5027034;28;20188;-86
2023/03/23 08:34:07;;;;;;;0.90;0.80;;;13.10;97.30;;;;;;5032975;28;20180;-85
2023/03/23 08:36:34;;;;;;;0.77;0.73;;;13.00;97.30;;;;;;5024292;28;20981;-86
2023/03/23 08:39:00;;;;;;;1.10;1.00;;;13.10;97.30;;;;;;5033611;28;20474;-86
2023/03/23 08:41:26;;;;;;;1.10;1.00;;;13.10;97.30;;;;;;5037626;28;20422;-84
2023/03/23 08:43:54;;;;;;;1.13;1.03;;;13.20;97.30;;;;;;5043693;28;20458;-86
2023/03/23 08:46:20;;;;;;;3.13;1.20;;;13.20;97.30;;;;;;5032045;28;20659;-86
2023/03/23 08:48:46;;;;;;;1.10;1.00;;;13.30;97.30;;;;;;5038672;28;20522;-85
2023/03/23 08:51:12;;;;;;;3.90;1.57;;;13.40;97.30;;;;;;5033538;28;20211;-86
2023/03/23 08:53:38;;;;;;;0.90;0.80;;;13.40;97.30;;;;;;5051228;28;20476;-85
2023/03/23 08:56:09;;;;;;;1.57;1.10;;;13.50;97.30;;;;;;5050955;28;20176;-85
2023/03/23 08:58:36;;;;;;;1.00;0.90;;;13.70;97.30;;;;;;5038543;28;20437;-84
2023/03/23 09:01:03;;;;;;;2.40;1.57;;;13.90;97.30;;;;;;5029974;28;20423;-86
2023/03/23 09:03:28;;;;;;;1.20;1.10;;;14.00;97.30;;;;;;5022566;28;20430;-86
2023/03/23 09:05:59;;;;;;;1.60;1.50;;;14.10;97.30;;;;;;5025013;28;20987;-86
2023/03/23 09:08:26;;;;;;;1.40;1.40;;;14.20;97.30;;;;;;5034878;28;20199;-86
2023/03/23 09:10:51;;;;;;;2.60;1.10;;;14.30;97.30;;;;;;5020828;28;20477;-86
2023/03/23 09:13:17;;;;;;;1.87;1.37;;;14.40;97.30;;;;;;5026935;28;20410;-86
2023/03/23 09:15:42;;;;;;;1.00;0.90;;;14.40;97.30;;;;;;5032954;28;20533;-86
2023/03/23 09:18:08;;;;;;;1.27;1.17;;;14.50;97.30;;;;;;5027459;28;20248;-86
2023/03/23 09:20:33;;;;;;;1.13;1.03;;;14.50;97.30;;;;;;5033529;28;20704;-85
2023/03/23 09:22:59;;;;;;;0.93;0.90;;;14.60;97.30;;;;;;5038154;28;20234;-86
2023/03/23 09:25:27;;;;;;;2.33;1.27;;;14.80;97.30;;;;;;5037249;28;20215;-86
2023/03/23 09:27:56;;;;;;;1.47;1.33;;;14.90;97.30;;;;;;5032966;28;20434;-86
2023/03/23 09:30:27;;;;;;;1.10;1.00;;;15.00;97.30;;;;;;5026434;28;20812;-86
2023/03/23 09:32:54;;;;;;;3.00;1.97;;;15.10;97.00;;;;;;5031489;28;20464;-86
2023/03/23 09:35:21;;;;;;;3.57;1.40;;;15.10;96.00;;;;;;5022437;28;20426;-85
2023/03/23 09:37:48;;;;;;;1.33;1.23;;;15.00;95.60;;;;;;5035158;28;20460;-86
2023/03/23 09:40:19;;;;;;;1.23;1.17;;;15.00;95.70;;;;;;5037901;28;20778;-86
2023/03/23 09:43:11;;;;;;;1.00;0.90;;;15.00;96.20;;;;;;5050157;28;20566;-85
2023/03/23 09:46:04;;;;;;;1.10;1.00;;;15.00;95.90;;;;;;5043760;28;20925;-85
2023/03/23 09:49:01;;;;;;;1.87;1.80;;;15.00;96.10;;;;;;5040515;28;20441;-85
2023/03/23 09:51:38;;;;;;;1.47;1.37;;;15.00;95.80;;;;;;5031440;28;20414;-86
2023/03/23 09:54:13;;;;;;;1.20;1.10;;;15.10;95.90;;;;;;5041180;28;20414;-86
2023/03/23 09:56:39;;;;;;;2.30;1.37;;;15.20;95.80;;;;;;5046628;28;20418;-86
2023/03/23 09:59:20;;;;;;;1.40;1.30;;;15.20;95.50;;;;;;5049780;28;20430;-87
2023/03/23 10:01:52;;;;;;;5.67;1.80;;;15.30;95.40;;;;;;5039213;28;20413;-85
2023/03/23 10:04:37;;;;;;;1.10;1.00;;;15.30;94.40;;;;;;5044390;28;20453;-86
2023/03/23 10:07:15;;;;;;;1.10;1.07;;;15.40;94.60;;;;;;5048796;28;20450;-86
2023/03/23 10:09:42;;;;;;;1.20;1.10;;;15.40;94.40;;;;;;5033936;28;20477;-86
2023/03/23 10:12:27;;;;;;;1.00;1.00;;;15.40;94.20;;;;;;5046137;28;20417;-86
2023/03/23 10:15:02;;;;;;;1.80;1.07;;;15.40;93.60;;;;;;5056527;28;20426;-86
2023/03/23 10:17:34;;;;;;;1.13;1.03;;;15.50;93.70;;;;;;5068916;28;20482;-85
2023/03/23 10:20:11;;;;;;;1.27;1.17;;;15.50;93.50;;;;;;5051938;28;20489;-86
2023/03/23 10:22:43;;;;;;;1.50;1.40;;;15.50;93.20;;;;;;5061500;28;20939;-86
2023/03/23 10:25:12;;;;;;;1.10;1.00;;;15.50;93.10;;;;;;5057102;28;20465;-87
2023/03/23 10:28:10;;;;;;;0.87;0.80;;;15.60;92.90;;;;;;5065472;28;21226;-86
2023/03/23 10:30:42;;;;;;;1.20;1.17;;;15.70;92.70;;;;;;5065635;28;20417;-86
2023/03/23 10:33:42;;;;;;;1.23;1.17;;;15.70;92.60;;;;;;5065849;28;20912;-85
2023/03/23 10:36:31;;;;;;;1.30;1.20;;;15.80;92.20;;;;;;5066652;28;20945;-86
2023/03/23 10:39:17;;;;;;;1.00;0.90;;;15.80;91.90;;;;;;5072972;28;21061;-84
2023/03/23 10:41:42;;;;;;;1.07;0.97;;;15.90;90.90;;;;;;5060999;28;20500;-85
2023/03/23 10:44:17;;;;;;;1.10;1.00;;;15.90;90.50;;;;;;5065456;28;20945;-86
2023/03/23 10:46:56;;;;;;;0.90;0.80;;;15.90;90.60;;;;;;5072780;28;20786;-85
2023/03/23 10:49:25;;;;;;;0.90;0.80;;;16.00;90.70;;;;;;5059005;28;20437;-87
2023/03/23 10:52:18;;;;;;;3.60;1.20;;;15.90;90.10;;;;;;5068927;28;20420;-86
2023/03/23 10:54:55;;;;;;;1.07;0.80;;;15.90;91.40;;;;;;5066183;28;20936;-86
2023/03/23 10:57:29;;;;;;;0.90;0.80;;;16.00;90.60;;;;;;5061117;28;20421;-86
2023/03/23 11:00:08;;;;;;;1.47;1.20;;;16.00;90.40;;;;;;5057445;28;20430;-86
2023/03/23 11:02:47;;;;;;;1.00;0.90;;;16.00;89.80;;;;;;5073164;28;20415;-84
2023/03/23 11:05:17;;;;;;;0.90;0.80;;;16.00;89.90;;;;;;5065960;28;20461;-86
2023/03/23 11:07:54;;;;;;;1.67;1.57;;;16.00;90.20;;;;;;5073075;28;20437;-86
2023/03/23 11:10:36;;;;;;;1.03;1.00;;;15.90;88.50;;;;;;5055616;28;20422;-86
2023/03/23 11:13:04;;;;;;;1.00;0.97;;;15.90;87.60;;;;;;5079235;28;20410;-87
2023/03/23 11:15:39;;;;;;;1.00;0.90;;;15.90;87.10;;;;;;5065453;28;20436;-86
2023/03/23 11:18:26;;;;;;;1.17;1.07;;;15.90;87.80;;;;;;5063888;28;20495;-86
2023/03/23 11:20:57;;;;;;;2.20;1.30;;;16.00;86.90;;;;;;5054726;28;20414;-85
2023/03/23 11:23:36;;;;;;;1.87;1.40;;;16.10;86.70;;;;;;5055045;28;20937;-86
2023/03/23 11:26:16;;;;;;;1.23;0.90;;;16.10;86.40;;;;;;5067449;28;20782;-86
2023/03/23 11:28:51;;;;;;;0.70;0.70;;;16.00;86.70;;;;;;5060849;28;20448;-86
2023/03/23 11:31:17;;;;;;;0.70;0.70;;;15.90;86.30;;;;;;5060006;28;20788;-86
2023/03/23 11:33:54;;;;;;;1.23;1.13;;;15.80;86.50;;;;;;5060058;28;20474;-85
2023/03/23 11:36:23;;;;;;;0.90;0.80;;;15.70;87.10;;;;;;5064558;28;20806;-86
2023/03/23 11:38:55;;;;;;;1.20;1.00;;;15.80;88.10;;;;;;5058146;28;20470;-86
2023/03/23 11:41:22;;;;;;;1.10;1.00;;;15.70;87.20;;;;;;5065023;28;20417;-85
2023/03/23 11:43:52;;;;;;;0.83;0.80;;;15.60;87.70;;;;;;5062977;28;20457;-85
2023/03/23 11:46:43;;;;;;;0.70;0.70;;;15.60;88.10;;;;;;5065498;28;20418;-85
2023/03/23 11:49:33;;;;;;;0.90;0.80;;;15.70;88.60;;;;;;5065333;28;20442;-85
2023/03/23 11:52:19;;;;;;;1.17;1.00;;;15.70;88.10;;;;;;5039756;28;20413;-86
2023/03/23 11:54:54;;;;;;;1.67;1.20;;;15.80;88.40;;;;;;5058535;28;20643;-86
2023/03/23 11:57:19;;;;;;;1.00;0.90;;;15.80;88.60;;;;;;5059016;28;20418;-86
2023/03/23 11:59:45;;;;;;;1.17;1.07;;;15.80;88.70;;;;;;5065153;28;20474;-86
2023/03/23 12:02:20;;;;;;;1.03;1.00;;;15.90;88.80;;;;;;5064872;28;20171;-86
2023/03/23 12:05:28;;;;;;;1.00;0.90;;;15.90;88.60;;;;;;5062118;28;20457;-86
2023/03/23 12:08:17;;;;;;;1.00;1.00;;;16.00;88.90;;;;;;5061060;28;20462;-86
2023/03/23 12:11:03;;;;;;;1.13;1.03;;;16.00;89.00;;;;;;5070384;28;20413;-86
2023/03/23 12:13:52;;;;;;;1.03;0.93;;;16.10;88.60;;;;;;5058253;28;20773;-86
2023/03/23 12:16:18;;;;;;;0.90;0.80;;;16.10;89.10;;;;;;5070379;28;20967;-86
2023/03/23 12:19:03;;;;;;;2.10;1.73;;;16.20;88.90;;;;;;5054205;28;20445;-84
2023/03/23 12:21:36;;;;;;;1.20;1.10;;;16.20;89.10;;;;;;5087011;28;20180;-86
2023/03/23 12:24:35;;;;;;;1.13;1.10;;;16.30;88.80;;;;;;5061700;28;20454;-85
2023/03/23 12:27:19;;;;;;;1.00;0.90;;;16.30;88.90;;;;;;5070597;28;20509;-86
2023/03/23 12:30:12;;;;;;;2.10;0.90;;;16.40;88.50;;;;;;5076909;28;20941;-86
2023/03/23 12:32:56;;;;;;;1.00;0.90;;;16.40;88.90;;;;;;5087467;28;20778;-86
2023/03/23 12:36:07;;;;;;;1.83;1.77;;;16.40;88.60;;;;;;5060767;28;20928;-85
2023/03/23 12:39:00;;;;;;;1.10;1.00;;;16.40;89.00;;;;;;5061098;28;20477;-86
2023/03/23 12:41:32;;;;;;;0.90;0.80;;;16.60;88.80;;;;;;5055226;28;20917;-85
2023/03/23 12:44:13;;;;;;;9.43;1.03;;;16.90;88.50;;;;;;5062148;28;20890;-85
2023/03/23 12:47:10;;;;;;;0.90;0.90;;;17.50;88.00;;;;;;5070292;28;20413;-86
2023/03/23 12:50:03;;;;;;;0.90;0.80;;;17.90;86.50;;;;;;5056122;28;20431;-85
2023/03/23 12:52:58;;;;;;;1.57;1.40;;;17.70;86.10;;;;;;5063156;28;20999;-86
2023/03/23 12:55:45;;;;;;;0.90;0.80;;;17.40;86.80;;;;;;5056952;28;20433;-85
2023/03/23 12:58:26;;;;;;;1.20;1.10;;;17.20;86.80;;;;;;5070481;28;20437;-86
2023/03/23 13:01:09;;;;;;;0.90;0.80;;;17.30;86.80;;;;;;5059190;28;20494;-86
2023/03/23 13:04:07;;;;;;;0.90;0.90;;;17.10;86.50;;;;;;5070334;28;20444;-86
2023/03/23 13:06:45;;;;;;;10.73;1.20;;;17.10;86.90;;;;;;5064048;28;20409;-86